createdAt,value
2022-10-21T00:01:04.622Z,12.10
2022-10-21T00:03:32.820Z,12.10
2022-10-21T00:06:02.378Z,12.20
2022-10-21T00:08:30.624Z,12.20
2022-10-21T00:11:01.142Z,12.20
2022-10-21T00:13:30.853Z,12.20
2022-10-21T00:16:00.890Z,12.10
2022-10-21T00:18:29.619Z,12.20
2022-10-21T00:20:58.056Z,12.10
2022-10-21T00:23:27.597Z,12.00
2022-10-21T00:25:57.997Z,12.00
2022-10-21T00:28:26.300Z,11.90
2022-10-21T00:30:54.556Z,11.80
2022-10-21T00:33:23.073Z,11.80
2022-10-21T00:35:55.013Z,11.80
2022-10-21T00:38:23.293Z,11.80
2022-10-21T00:40:53.091Z,11.80
2022-10-21T00:43:21.216Z,11.80
2022-10-21T00:45:51.920Z,11.70
2022-10-21T00:48:26.012Z,11.60
2022-10-21T00:50:59.630Z,11.60
2022-10-21T00:53:28.340Z,11.50
2022-10-21T00:56:02.842Z,11.50
2022-10-21T00:58:33.260Z,11.50
2022-10-21T01:01:04.517Z,11.50
2022-10-21T01:03:33.638Z,11.50
2022-10-21T01:06:04.802Z,11.40
2022-10-21T01:08:34.739Z,11.40
2022-10-21T01:11:05.369Z,11.40
2022-10-21T01:13:41.677Z,11.40
2022-10-21T01:16:16.929Z,11.30
2022-10-21T01:18:49.800Z,11.30
2022-10-21T01:21:31.061Z,11.30
2022-10-21T01:24:26.184Z,11.20
2022-10-21T01:27:17.655Z,11.20
2022-10-21T01:30:22.496Z,11.10
2022-10-21T01:33:27.326Z,11.00
2022-10-21T01:36:01.888Z,11.00
2022-10-21T01:38:35.231Z,10.90
2022-10-21T01:41:11.420Z,10.90
2022-10-21T01:43:46.666Z,10.90
2022-10-21T01:46:20.673Z,10.80
2022-10-21T01:48:57.166Z,10.80
2022-10-21T01:51:28.766Z,10.80
2022-10-21T01:54:03.796Z,10.80
2022-10-21T01:56:33.076Z,10.80
2022-10-21T01:59:03.376Z,10.80
2022-10-21T02:01:33.834Z,10.80
2022-10-21T02:04:05.658Z,10.80
2022-10-21T02:06:33.930Z,10.80
2022-10-21T02:09:02.218Z,10.80
2022-10-21T02:11:31.659Z,10.80
2022-10-21T02:14:05.184Z,10.70
2022-10-21T02:16:37.754Z,10.70
2022-10-21T02:19:12.252Z,10.70
2022-10-21T02:21:40.925Z,10.60
2022-10-21T02:24:16.935Z,10.70
2022-10-21T02:26:45.151Z,10.60
2022-10-21T02:29:14.700Z,10.50
2022-10-21T02:31:54.275Z,10.50
2022-10-21T02:34:32.537Z,10.50
2022-10-21T02:37:09.287Z,10.40
2022-10-21T02:39:40.946Z,10.40
2022-10-21T02:42:14.598Z,10.30
2022-10-21T02:44:42.759Z,10.30
2022-10-21T02:49:40.481Z,10.30
2022-10-21T02:52:08.659Z,10.30
2022-10-21T02:54:36.907Z,10.30
2022-10-21T02:57:05.180Z,10.30
2022-10-21T02:59:33.332Z,10.20
2022-10-21T03:02:01.602Z,10.20
2022-10-21T03:04:29.799Z,10.20
2022-10-21T03:06:59.385Z,10.30
2022-10-21T03:09:27.562Z,10.20
2022-10-21T03:11:55.761Z,10.30
2022-10-21T03:14:24.019Z,10.30
2022-10-21T03:16:52.241Z,10.20
2022-10-21T03:19:20.425Z,10.20
2022-10-21T03:21:48.609Z,10.20
2022-10-21T03:24:28.000Z,10.20
2022-10-21T03:26:57.404Z,10.20
2022-10-21T03:29:25.638Z,10.20
2022-10-21T03:31:53.823Z,10.20
2022-10-21T03:34:22.001Z,10.10
2022-10-21T03:36:50.153Z,10.10
2022-10-21T03:39:19.744Z,10.10
2022-10-21T03:41:47.947Z,10.10
2022-10-21T03:44:16.127Z,10.10
2022-10-21T03:46:44.279Z,10.00
2022-10-21T03:49:21.093Z,10.10
2022-10-21T03:51:50.367Z,10.00
2022-10-21T03:54:20.124Z,10.00
2022-10-21T03:56:48.337Z,10.00
2022-10-21T03:59:16.478Z,9.90
2022-10-21T04:01:44.880Z,10.00
2022-10-21T04:04:13.150Z,10.00
2022-10-21T04:06:41.318Z,10.00
2022-10-21T04:09:09.660Z,10.00
2022-10-21T04:11:39.373Z,10.00
2022-10-21T04:14:11.447Z,10.00
2022-10-21T04:16:42.917Z,10.00
2022-10-21T04:19:17.257Z,10.00
2022-10-21T04:21:45.454Z,9.90
2022-10-21T04:24:13.914Z,9.90
2022-10-21T04:26:43.644Z,9.90
2022-10-21T04:29:11.856Z,9.90
2022-10-21T04:31:40.023Z,9.90
2022-10-21T04:34:08.190Z,9.90
2022-10-21T04:36:36.421Z,9.90
2022-10-21T04:39:05.244Z,10.00
2022-10-21T04:41:33.537Z,10.00
2022-10-21T04:44:05.008Z,10.10
2022-10-21T04:46:33.338Z,10.20
2022-10-21T04:49:01.545Z,10.20
2022-10-21T04:51:29.747Z,10.30
2022-10-21T04:53:58.076Z,10.40
2022-10-21T04:56:26.333Z,10.40
2022-10-21T04:58:54.533Z,10.40
2022-10-21T05:01:24.115Z,10.40
2022-10-21T05:03:52.312Z,10.50
2022-10-21T05:06:20.541Z,10.50
2022-10-21T05:08:48.779Z,10.50
2022-10-21T05:11:16.997Z,10.50
2022-10-21T05:13:45.174Z,10.50
2022-10-21T05:16:13.403Z,10.50
2022-10-21T05:18:43.117Z,10.40
2022-10-21T05:21:11.254Z,10.40
2022-10-21T05:23:39.396Z,10.30
2022-10-21T05:26:07.834Z,10.40
2022-10-21T05:28:36.131Z,10.30
2022-10-21T05:31:04.657Z,10.30
2022-10-21T05:33:32.825Z,10.30
2022-10-21T05:36:06.825Z,10.30
2022-10-21T05:38:35.964Z,10.30
2022-10-21T05:41:04.344Z,10.30
2022-10-21T05:43:32.592Z,10.30
2022-10-21T05:46:00.845Z,10.30
2022-10-21T05:48:29.087Z,10.30
2022-10-21T05:50:57.853Z,10.40
2022-10-21T05:53:27.625Z,10.40
2022-10-21T05:55:57.354Z,10.40
2022-10-21T05:58:26.206Z,10.50
2022-10-21T06:00:55.308Z,10.50
2022-10-21T06:03:24.633Z,10.60
2022-10-21T06:05:52.857Z,10.70
2022-10-21T06:08:21.060Z,10.80
2022-10-21T06:10:50.697Z,10.90
2022-10-21T06:13:18.868Z,11.00
2022-10-21T06:15:48.904Z,11.00
2022-10-21T06:18:19.230Z,11.10
2022-10-21T06:20:47.437Z,11.20
2022-10-21T06:23:16.347Z,11.30
2022-10-21T06:25:44.885Z,11.40
2022-10-21T06:28:14.503Z,11.50
2022-10-21T06:30:42.660Z,11.60
2022-10-21T06:33:10.848Z,11.60
2022-10-21T06:35:39.079Z,11.70
2022-10-21T06:38:07.248Z,11.80
2022-10-21T06:40:35.492Z,11.90
2022-10-21T06:43:03.736Z,12.00
2022-10-21T06:45:33.690Z,12.10
2022-10-21T06:48:02.018Z,12.10
2022-10-21T06:50:30.295Z,12.20
2022-10-21T06:52:58.993Z,12.30
2022-10-21T06:55:27.307Z,12.40
2022-10-21T06:57:55.530Z,12.50
2022-10-21T07:00:23.989Z,12.50
2022-10-21T07:02:53.691Z,12.60
2022-10-21T07:05:21.830Z,12.70
2022-10-21T07:07:50.014Z,12.70
2022-10-21T07:10:18.376Z,12.80
2022-10-21T07:12:46.890Z,12.90
2022-10-21T07:15:15.780Z,13.00
2022-10-21T07:17:43.974Z,13.10
2022-10-21T07:20:13.639Z,13.20
2022-10-21T07:22:41.805Z,13.20
2022-10-21T07:25:10.387Z,13.20
2022-10-21T07:27:38.729Z,13.20
2022-10-21T07:30:08.025Z,13.20
2022-10-21T07:32:36.216Z,13.30
2022-10-21T07:35:04.633Z,13.40
2022-10-21T07:37:34.322Z,13.40
2022-10-21T07:40:02.853Z,13.50
2022-10-21T07:42:31.174Z,13.50
2022-10-21T07:45:01.154Z,13.60
2022-10-21T07:47:29.329Z,13.60
2022-10-21T07:49:57.658Z,13.70
2022-10-21T07:52:25.863Z,13.60
2022-10-21T07:54:55.516Z,13.60
2022-10-21T07:57:23.861Z,13.40
2022-10-21T07:59:52.145Z,13.30
2022-10-21T08:02:20.322Z,13.20
2022-10-21T08:04:48.584Z,13.30
2022-10-21T08:07:16.744Z,13.40
2022-10-21T08:09:44.838Z,13.50
2022-10-21T08:12:15.338Z,13.60
2022-10-21T08:14:43.753Z,13.70
2022-10-21T08:17:11.923Z,13.80
2022-10-21T08:19:40.417Z,13.80
2022-10-21T08:22:08.811Z,13.90
2022-10-21T08:24:40.015Z,13.90
2022-10-21T08:27:10.552Z,14.00
2022-10-21T08:29:40.294Z,14.10
2022-10-21T08:32:08.570Z,14.20
2022-10-21T08:34:38.179Z,14.40
2022-10-21T08:37:06.329Z,14.50
2022-10-21T08:39:34.493Z,14.70
2022-10-21T08:42:15.258Z,14.70
2022-10-21T08:44:51.308Z,14.70
2022-10-21T08:47:29.996Z,14.70
2022-10-21T08:50:01.876Z,14.70
2022-10-21T08:52:39.760Z,14.70
2022-10-21T08:55:14.351Z,14.60
2022-10-21T08:57:42.814Z,14.50
2022-10-21T09:00:26.413Z,14.50
2022-10-21T09:03:06.269Z,14.40
2022-10-21T09:05:41.777Z,14.40
2022-10-21T09:08:20.299Z,14.30
2022-10-21T09:11:02.498Z,14.30
2022-10-21T09:13:51.334Z,14.30
2022-10-21T09:16:28.548Z,14.30
2022-10-21T09:19:08.450Z,14.30
2022-10-21T09:21:49.328Z,14.30
2022-10-21T09:24:25.129Z,14.20
2022-10-21T09:26:55.060Z,14.20
2022-10-21T09:29:29.808Z,14.20
2022-10-21T09:32:10.951Z,14.10
2022-10-21T09:34:46.593Z,14.10
2022-10-21T09:37:22.641Z,14.10
2022-10-21T09:39:58.764Z,14.10
2022-10-21T09:42:47.310Z,14.10
2022-10-21T09:45:22.793Z,14.10
2022-10-21T09:47:56.916Z,14.20
2022-10-21T09:50:25.681Z,14.40
2022-10-21T09:53:01.600Z,14.50
2022-10-21T09:55:32.146Z,14.50
2022-10-21T09:58:02.279Z,14.60
2022-10-21T10:00:44.772Z,14.70
2022-10-21T10:03:29.664Z,14.70
2022-10-21T10:05:58.143Z,14.80
2022-10-21T10:08:39.221Z,15.00
2022-10-21T10:11:17.581Z,15.20
2022-10-21T10:13:47.697Z,15.30
2022-10-21T10:16:28.605Z,15.40
2022-10-21T10:19:17.062Z,15.50
2022-10-21T10:21:45.984Z,15.60
2022-10-21T10:24:18.898Z,15.70
2022-10-21T10:26:47.850Z,15.80
2022-10-21T10:29:26.219Z,15.80
2022-10-21T10:31:57.349Z,15.80
2022-10-21T10:34:32.611Z,15.80
2022-10-21T10:37:05.461Z,15.70
2022-10-21T10:39:35.951Z,15.60
2022-10-21T10:42:05.287Z,15.60
2022-10-21T10:44:37.883Z,15.60
2022-10-21T10:47:07.903Z,15.60
2022-10-21T10:49:43.732Z,15.60
2022-10-21T10:52:24.096Z,15.70
2022-10-21T10:55:15.313Z,15.80
2022-10-21T10:57:59.131Z,15.80
2022-10-21T11:00:43.698Z,15.90
2022-10-21T11:03:16.729Z,15.90
2022-10-21T11:05:49.497Z,15.90
2022-10-21T11:08:22.445Z,15.90
2022-10-21T11:10:53.614Z,15.80
2022-10-21T11:13:24.667Z,15.70
2022-10-21T11:16:11.472Z,15.50
2022-10-21T11:18:48.748Z,15.40
2022-10-21T11:21:39.876Z,15.30
2022-10-21T11:24:24.328Z,15.20
2022-10-21T11:26:58.485Z,15.30
2022-10-21T11:29:41.448Z,15.20
2022-10-21T11:32:22.879Z,15.20
2022-10-21T11:35:00.402Z,15.20
2022-10-21T11:37:44.230Z,15.10
2022-10-21T11:40:21.015Z,15.10
2022-10-21T11:42:52.202Z,15.20
2022-10-21T11:45:33.763Z,15.40
2022-10-21T11:48:12.227Z,15.50
2022-10-21T11:50:48.830Z,15.60
2022-10-21T11:53:36.392Z,15.70
2022-10-21T11:56:14.526Z,15.80
2022-10-21T11:58:55.788Z,15.80
2022-10-21T12:01:33.172Z,15.80
2022-10-21T12:04:24.348Z,15.70
2022-10-21T12:07:22.908Z,15.70
2022-10-21T12:09:57.948Z,15.60
2022-10-21T12:12:33.165Z,15.60
2022-10-21T12:15:03.508Z,15.50
2022-10-21T12:17:34.774Z,15.50
2022-10-21T12:20:06.488Z,15.50
2022-10-21T12:22:35.811Z,15.50
2022-10-21T12:25:18.284Z,15.40
2022-10-21T12:27:50.671Z,15.40
2022-10-21T12:30:25.022Z,15.50
2022-10-21T12:33:14.001Z,15.60
2022-10-21T12:35:47.223Z,15.60
2022-10-21T12:38:25.229Z,15.60
2022-10-21T12:41:27.028Z,15.70
2022-10-21T12:43:59.749Z,15.60
2022-10-21T12:46:30.177Z,15.50
2022-10-21T12:49:00.959Z,15.50
2022-10-21T12:51:32.498Z,15.60
2022-10-21T12:54:08.768Z,15.80
2022-10-21T12:56:44.538Z,16.00
2022-10-21T12:59:28.588Z,16.10
2022-10-21T13:02:23.422Z,16.10
2022-10-21T13:04:54.146Z,16.10
2022-10-21T13:07:36.675Z,16.10
2022-10-21T13:10:28.965Z,16.20
2022-10-21T13:13:38.958Z,16.40
2022-10-21T13:16:35.100Z,16.60
2022-10-21T13:19:05.404Z,16.70
2022-10-21T13:21:41.506Z,16.80
2022-10-21T13:24:23.430Z,16.90
2022-10-21T13:26:53.992Z,16.80
2022-10-21T13:29:30.510Z,16.80
2022-10-21T13:32:31.202Z,16.90
2022-10-21T13:35:11.435Z,17.00
2022-10-21T13:37:42.749Z,17.10
2022-10-21T13:40:16.998Z,17.30
2022-10-21T13:42:49.166Z,17.40
2022-10-21T13:45:26.031Z,17.50
2022-10-21T13:48:04.048Z,17.50
2022-10-21T13:50:34.835Z,17.70
2022-10-21T13:53:04.524Z,17.80
2022-10-21T13:56:00.608Z,17.80
2022-10-21T13:58:39.359Z,17.80
2022-10-21T14:01:12.583Z,18.00
2022-10-21T14:03:43.902Z,18.00
2022-10-21T14:06:17.361Z,18.10
2022-10-21T14:08:48.319Z,18.20
2022-10-21T14:11:19.747Z,18.10
2022-10-21T14:13:49.724Z,18.10
2022-10-21T14:16:44.406Z,18.10
2022-10-21T14:19:21.065Z,18.20
2022-10-21T14:21:52.755Z,18.20
2022-10-21T14:24:28.911Z,18.20
2022-10-21T14:26:58.119Z,18.20
2022-10-21T14:29:30.382Z,18.30
2022-10-21T14:31:59.140Z,18.40
2022-10-21T14:34:30.694Z,18.40
2022-10-21T14:37:07.840Z,18.50
2022-10-21T14:39:44.526Z,18.50
2022-10-21T14:42:41.170Z,18.60
2022-10-21T14:45:17.950Z,18.60
2022-10-21T14:47:50.806Z,18.60
2022-10-21T14:50:24.920Z,18.50
2022-10-21T14:52:55.251Z,18.40
2022-10-21T14:55:29.850Z,18.30
2022-10-21T14:58:04.513Z,18.10
2022-10-21T15:00:37.664Z,18.00
2022-10-21T15:03:05.905Z,17.90
2022-10-21T15:05:38.632Z,17.80
2022-10-21T15:08:31.989Z,17.70
2022-10-21T15:11:23.300Z,17.60
2022-10-21T15:13:59.806Z,17.70
2022-10-21T15:16:30.528Z,17.60
2022-10-21T15:18:59.471Z,17.60
2022-10-21T15:21:36.290Z,17.60
2022-10-21T15:24:05.894Z,17.50
2022-10-21T15:26:37.096Z,17.50
2022-10-21T15:29:14.596Z,17.40
2022-10-21T15:31:43.314Z,17.30
2022-10-21T15:34:15.746Z,17.30
2022-10-21T15:36:45.289Z,17.20
2022-10-21T15:39:13.903Z,17.00
2022-10-21T15:41:42.308Z,16.90
2022-10-21T15:44:19.394Z,16.80
2022-10-21T15:46:49.918Z,16.70
2022-10-21T15:49:20.377Z,16.60
2022-10-21T15:51:50.588Z,16.50
2022-10-21T15:54:19.937Z,16.50
2022-10-21T15:56:50.244Z,16.40
2022-10-21T15:59:20.819Z,16.30
2022-10-21T16:01:49.999Z,16.20
2022-10-21T16:04:19.229Z,16.10
2022-10-21T16:06:50.285Z,16.00
2022-10-21T16:09:21.014Z,16.00
2022-10-21T16:11:59.098Z,15.90
2022-10-21T16:14:30.458Z,15.80
2022-10-21T16:16:59.563Z,15.80
2022-10-21T16:19:27.861Z,15.80
2022-10-21T16:21:57.517Z,15.70
2022-10-21T16:24:25.932Z,15.70
2022-10-21T16:26:54.096Z,15.60
2022-10-21T16:29:24.477Z,15.60
2022-10-21T16:31:53.202Z,15.50
2022-10-21T16:34:21.417Z,15.50
2022-10-21T16:36:49.661Z,15.40
2022-10-21T16:39:21.984Z,15.40
2022-10-21T16:41:50.321Z,15.40
2022-10-21T16:44:18.594Z,15.30
2022-10-21T16:46:51.266Z,15.30
2022-10-21T16:49:22.653Z,15.30
2022-10-21T16:51:52.517Z,15.20
2022-10-21T16:55:24.505Z,15.20
2022-10-21T16:58:22.832Z,15.20
2022-10-21T17:00:51.131Z,15.20
2022-10-21T17:03:19.341Z,15.10
2022-10-21T17:05:50.262Z,15.10
2022-10-21T17:08:18.454Z,15.10
2022-10-21T17:10:46.633Z,15.00
2022-10-21T17:13:14.827Z,15.00
2022-10-21T17:20:22.487Z,14.90
2022-10-21T17:22:50.661Z,14.80
2022-10-21T17:25:24.217Z,14.70
2022-10-21T17:27:52.458Z,14.70
2022-10-21T17:30:21.220Z,14.60
2022-10-21T17:32:49.460Z,14.50
2022-10-21T17:35:19.771Z,14.50
2022-10-21T17:37:50.213Z,14.50
2022-10-21T17:40:20.370Z,14.40
2022-10-21T17:42:48.853Z,14.40
2022-10-21T17:45:18.322Z,14.40
2022-10-21T17:47:46.684Z,14.30
2022-10-21T17:50:18.473Z,14.30
2022-10-21T17:52:46.773Z,14.30
2022-10-21T17:55:16.399Z,14.30
2022-10-21T17:57:45.649Z,14.20
2022-10-21T18:00:15.705Z,14.20
2022-10-21T18:02:43.875Z,14.20
2022-10-21T18:05:12.298Z,14.10
2022-10-21T18:07:40.748Z,14.10
2022-10-21T18:10:09.933Z,14.00
2022-10-21T18:12:39.682Z,14.00
2022-10-21T18:15:08.709Z,14.00
2022-10-21T18:17:37.405Z,14.00
2022-10-21T18:20:07.695Z,14.00
2022-10-21T18:22:35.842Z,14.00
2022-10-21T18:25:04.462Z,13.90
2022-10-21T18:27:32.745Z,13.90
2022-10-21T18:30:04.983Z,13.90
2022-10-21T18:32:33.083Z,13.90
2022-10-21T18:35:01.247Z,13.90
2022-10-21T18:37:29.425Z,13.90
2022-10-21T18:39:59.063Z,13.90
2022-10-21T18:42:27.504Z,13.90
2022-10-21T18:44:55.705Z,13.90
2022-10-21T18:47:26.835Z,13.90
2022-10-21T18:49:55.205Z,13.90
2022-10-21T18:52:23.371Z,13.80
2022-10-21T18:54:51.517Z,13.80
2022-10-21T18:57:19.662Z,13.80
2022-10-21T18:59:47.817Z,13.90
2022-10-21T19:02:21.509Z,13.90
2022-10-21T19:04:51.172Z,13.90
2022-10-21T19:07:20.093Z,13.90
2022-10-21T19:09:48.516Z,13.80
2022-10-21T19:12:20.951Z,13.80
2022-10-21T19:14:51.440Z,13.80
2022-10-21T19:17:20.100Z,13.80
2022-10-21T19:19:48.285Z,13.80
2022-10-21T19:22:18.412Z,13.70
2022-10-21T19:24:46.727Z,13.80
2022-10-21T19:27:15.205Z,13.80
2022-10-21T19:29:44.179Z,13.80
2022-10-21T19:32:13.320Z,13.80
2022-10-21T19:34:41.537Z,13.80
2022-10-21T19:37:10.613Z,13.70
2022-10-21T19:39:40.485Z,13.70
2022-10-21T19:42:08.690Z,13.70
2022-10-21T19:44:37.049Z,13.70
2022-10-21T19:47:05.180Z,13.70
2022-10-21T19:49:33.889Z,13.70
2022-10-21T19:52:03.182Z,13.60
2022-10-21T19:54:31.390Z,13.60
2022-10-21T19:57:01.027Z,13.60
2022-10-21T19:59:29.288Z,13.60
2022-10-21T20:01:57.452Z,13.50
2022-10-21T20:04:25.609Z,13.50
2022-10-21T20:06:53.780Z,13.50
2022-10-21T20:09:21.934Z,13.50
2022-10-21T20:11:50.101Z,13.50
2022-10-21T20:14:19.696Z,13.50
2022-10-21T20:16:49.845Z,13.40
2022-10-21T20:19:18.226Z,13.40
2022-10-21T20:21:46.457Z,13.40
2022-10-21T20:24:16.315Z,13.40
2022-10-21T20:26:45.626Z,13.30
2022-10-21T20:29:15.394Z,13.30
2022-10-21T20:31:44.946Z,13.30
2022-10-21T20:34:14.231Z,13.30
2022-10-21T20:36:42.362Z,13.30
2022-10-21T20:39:11.960Z,13.30
2022-10-21T20:41:40.708Z,13.30
2022-10-21T20:44:11.454Z,13.30
2022-10-21T20:46:39.638Z,13.30
2022-10-21T20:49:10.157Z,13.30
2022-10-21T20:51:39.836Z,13.30
2022-10-21T20:54:09.367Z,13.30
2022-10-21T20:56:39.884Z,13.30
2022-10-21T20:59:09.924Z,13.20
2022-10-21T21:01:41.815Z,13.20
2022-10-21T21:04:14.002Z,13.10
2022-10-21T21:06:44.775Z,13.10
2022-10-21T21:12:03.420Z,13.10
2022-10-21T21:14:32.308Z,13.10
2022-10-21T21:17:00.613Z,13.10
2022-10-21T21:19:30.275Z,13.10
2022-10-21T21:21:58.625Z,13.10
2022-10-21T21:24:27.034Z,13.10
2022-10-21T21:26:55.266Z,13.00
2022-10-21T21:29:23.444Z,13.00
2022-10-21T21:31:51.642Z,13.00
2022-10-21T21:34:19.862Z,13.00
2022-10-21T21:36:49.430Z,12.90
2022-10-21T21:39:17.704Z,12.90
2022-10-21T21:41:46.491Z,12.90
2022-10-21T21:44:14.710Z,12.80
2022-10-21T21:46:42.901Z,12.80
2022-10-21T21:49:11.093Z,12.80
2022-10-21T21:51:39.248Z,12.80
2022-10-21T21:54:08.837Z,12.80
2022-10-21T21:56:37.280Z,12.80
2022-10-21T21:59:05.650Z,12.80
2022-10-21T22:01:33.972Z,12.80
2022-10-21T22:04:02.211Z,12.70
2022-10-21T22:06:32.251Z,12.70
2022-10-21T22:09:01.493Z,12.70
2022-10-21T22:11:32.861Z,12.70
2022-10-21T22:14:02.033Z,12.70
2022-10-21T22:16:31.072Z,12.70
2022-10-21T22:19:00.907Z,12.60
2022-10-21T22:21:30.171Z,12.60
2022-10-21T22:23:58.438Z,12.60
2022-10-21T22:26:27.595Z,12.60
2022-10-21T22:28:57.364Z,12.60
2022-10-21T22:31:29.372Z,12.50
2022-10-21T22:34:00.326Z,12.50
2022-10-21T22:36:28.801Z,12.40
2022-10-21T22:38:57.082Z,12.40
2022-10-21T22:41:25.344Z,12.40
2022-10-21T22:43:53.563Z,12.40
2022-10-21T22:46:34.385Z,12.40
2022-10-21T22:49:03.828Z,12.40
2022-10-21T22:51:32.379Z,12.40
2022-10-21T22:54:01.148Z,12.50
2022-10-21T22:56:30.036Z,12.50
2022-10-21T22:58:58.504Z,12.50
2022-10-21T23:01:30.420Z,12.50
2022-10-21T23:04:02.447Z,12.50
2022-10-21T23:06:30.778Z,12.50
2022-10-21T23:08:59.131Z,12.50
2022-10-21T23:11:27.691Z,12.50
2022-10-21T23:14:03.188Z,12.50
2022-10-21T23:16:33.729Z,12.60
2022-10-21T23:19:01.973Z,12.60
2022-10-21T23:21:30.201Z,12.60
2022-10-21T23:23:58.474Z,12.60
2022-10-21T23:26:26.953Z,12.60
2022-10-21T23:28:55.173Z,12.60
2022-10-21T23:31:23.338Z,12.60
2022-10-21T23:33:52.920Z,12.70
2022-10-21T23:36:21.104Z,12.70
2022-10-21T23:38:49.196Z,12.80
2022-10-21T23:41:17.338Z,12.80
2022-10-21T23:43:45.516Z,12.80
2022-10-21T23:46:13.709Z,12.80
2022-10-21T23:48:41.864Z,12.80
2022-10-21T23:51:11.421Z,12.80
2022-10-21T23:53:39.552Z,12.80
2022-10-21T23:56:08.649Z,12.80
2022-10-21T23:58:36.828Z,12.80
